createdAt,value
2018-09-01T00:01:17.760Z,11.77
2018-09-01T00:03:46.425Z,11.77
2018-09-01T00:06:15.155Z,11.23
2018-09-01T00:08:43.801Z,9.90
2018-09-01T00:11:12.437Z,11.03
2018-09-01T00:13:41.229Z,9.93
2018-09-01T00:16:09.849Z,10.23
2018-09-01T00:18:39.002Z,10.77
2018-09-01T00:21:08.744Z,10.60
2018-09-01T00:23:37.330Z,11.83
2018-09-01T00:26:06.392Z,10.97
2018-09-01T00:28:35.078Z,11.70
2018-09-01T00:31:03.837Z,11.77
2018-09-01T00:33:32.464Z,11.93
2018-09-01T00:36:01.042Z,11.87
2018-09-01T00:38:34.920Z,12.27
2018-09-01T00:41:03.557Z,12.87
2018-09-01T00:43:32.188Z,11.53
2018-09-01T00:46:00.825Z,12.20
2018-09-01T00:48:29.412Z,13.13
2018-09-01T00:50:58.115Z,12.20
2018-09-01T00:53:26.794Z,11.97
2018-09-01T00:55:55.408Z,12.63
2018-09-01T00:58:24.126Z,12.97
2018-09-01T01:00:52.761Z,12.90
2018-09-01T01:03:21.569Z,12.57
2018-09-01T01:05:50.318Z,11.90
2018-09-01T01:08:18.944Z,12.20
2018-09-01T01:10:47.537Z,12.20
2018-09-01T01:13:16.189Z,11.80
2018-09-01T01:15:44.974Z,12.37
2018-09-01T01:18:13.621Z,12.50
2018-09-01T01:20:42.243Z,12.73
2018-09-01T01:23:10.884Z,11.80
2018-09-01T01:25:39.482Z,11.60
2018-09-01T01:28:08.170Z,12.53
2018-09-01T01:30:36.877Z,11.77
2018-09-01T01:33:05.508Z,11.40
2018-09-01T01:35:34.135Z,11.27
2018-09-01T01:38:02.778Z,12.43
2018-09-01T01:40:31.425Z,11.27
2018-09-01T01:43:00.161Z,12.03
2018-09-01T01:45:30.204Z,10.93
2018-09-01T01:47:59.535Z,11.00
2018-09-01T01:50:28.157Z,10.90
2018-09-01T01:52:56.816Z,10.77
2018-09-01T01:55:25.419Z,11.47
2018-09-01T01:57:54.166Z,11.40
2018-09-01T02:00:22.761Z,11.00
2018-09-01T02:02:51.384Z,11.27
2018-09-01T02:05:21.095Z,11.90
2018-09-01T02:07:50.961Z,11.03
2018-09-01T02:10:19.592Z,12.00
2018-09-01T02:12:48.220Z,11.83
2018-09-01T02:15:16.884Z,11.17
2018-09-01T02:17:45.532Z,11.00
2018-09-01T02:20:14.116Z,11.30
2018-09-01T02:22:42.848Z,11.40
2018-09-01T02:25:11.489Z,12.03
2018-09-01T02:27:40.092Z,11.47
2018-09-01T02:30:08.689Z,10.83
2018-09-01T02:32:37.305Z,11.03
2018-09-01T02:35:06.047Z,11.33
2018-09-01T02:37:34.719Z,11.40
2018-09-01T02:40:03.412Z,11.60
2018-09-01T02:42:33.052Z,11.83
2018-09-01T02:45:01.848Z,11.67
2018-09-01T02:47:30.533Z,11.37
2018-09-01T02:49:59.132Z,12.27
2018-09-01T02:52:27.764Z,11.73
2018-09-01T02:54:56.483Z,11.97
2018-09-01T02:57:25.125Z,12.40
2018-09-01T02:59:53.744Z,12.13
2018-09-01T03:02:27.917Z,10.83
2018-09-01T03:04:56.554Z,11.17
2018-09-01T03:07:25.332Z,11.40
2018-09-01T03:09:53.925Z,11.47
2018-09-01T03:12:22.615Z,10.63
2018-09-01T03:14:51.240Z,10.70
2018-09-01T03:17:20.173Z,10.97
2018-09-01T03:19:49.089Z,11.50
2018-09-01T03:22:17.794Z,9.87
2018-09-01T03:24:46.479Z,10.93
2018-09-01T03:27:15.161Z,9.83
2018-09-01T03:29:43.889Z,10.60
2018-09-01T03:32:12.461Z,10.23
2018-09-01T03:34:41.053Z,10.10
2018-09-01T03:37:09.642Z,9.57
2018-09-01T03:39:38.233Z,9.93
2018-09-01T03:42:06.859Z,10.13
2018-09-01T03:44:36.050Z,10.00
2018-09-01T03:47:04.808Z,10.03
2018-09-01T03:49:33.533Z,10.67
2018-09-01T03:52:02.261Z,10.60
2018-09-01T03:54:30.901Z,10.90
2018-09-01T03:56:59.524Z,9.83
2018-09-01T03:59:28.165Z,10.40
2018-09-01T04:01:56.852Z,11.37
2018-09-01T04:04:25.436Z,11.33
2018-09-01T04:06:54.151Z,11.40
2018-09-01T04:09:22.817Z,11.13
2018-09-01T04:11:51.572Z,12.03
2018-09-01T04:14:20.185Z,12.87
2018-09-01T04:16:48.853Z,12.93
2018-09-01T04:19:19.421Z,12.93
2018-09-01T04:21:49.781Z,13.07
2018-09-01T04:24:18.436Z,12.53
2018-09-01T04:26:47.673Z,12.50
2018-09-01T04:29:17.212Z,11.43
2018-09-01T04:31:46.972Z,11.20
2018-09-01T04:34:15.664Z,9.90
2018-09-01T04:36:44.679Z,9.57
2018-09-01T04:39:13.995Z,9.17
2018-09-01T04:41:43.336Z,9.20
2018-09-01T04:44:12.268Z,8.57
2018-09-01T04:46:41.248Z,9.17
2018-09-01T04:49:09.960Z,8.80
2018-09-01T04:51:38.720Z,9.20
2018-09-01T04:54:07.339Z,9.27
2018-09-01T04:56:36.059Z,10.10
2018-09-01T04:59:04.667Z,8.80
2018-09-01T05:01:33.405Z,9.13
2018-09-01T05:04:01.993Z,9.50
2018-09-01T05:06:30.584Z,8.77
2018-09-01T05:08:59.227Z,8.60
2018-09-01T05:11:27.930Z,8.93
2018-09-01T05:13:56.571Z,9.30
2018-09-01T05:16:25.282Z,9.37
2018-09-01T05:18:54.137Z,9.50
2018-09-01T05:21:22.776Z,9.27
2018-09-01T05:23:51.496Z,9.33
2018-09-01T05:26:20.312Z,10.30
2018-09-01T05:28:48.954Z,9.70
2018-09-01T05:31:18.992Z,11.33
2018-09-01T05:33:47.674Z,11.17
2018-09-01T05:36:16.522Z,11.03
2018-09-01T05:38:45.156Z,11.83
2018-09-01T05:41:13.801Z,11.40
2018-09-01T05:43:42.660Z,11.27
2018-09-01T05:46:11.533Z,12.03
2018-09-01T05:48:40.125Z,11.10
2018-09-01T05:51:08.784Z,11.40
2018-09-01T05:53:37.684Z,11.80
2018-09-01T05:56:06.459Z,12.23
2018-09-01T05:58:35.203Z,13.63
2018-09-01T06:01:03.988Z,12.87
2018-09-01T06:03:32.657Z,12.97
2018-09-01T06:06:01.413Z,12.83
2018-09-01T06:08:30.228Z,12.07
2018-09-01T06:10:58.958Z,12.10
2018-09-01T06:13:27.699Z,11.27
2018-09-01T06:15:56.460Z,11.00
2018-09-01T06:18:25.080Z,10.10
2018-09-01T06:20:53.833Z,10.07
2018-09-01T06:23:22.458Z,9.83
2018-09-01T06:25:51.053Z,10.50
2018-09-01T06:28:25.020Z,10.77
2018-09-01T06:30:54.780Z,10.17
2018-09-01T06:33:23.496Z,10.13
2018-09-01T06:35:52.146Z,10.57
2018-09-01T06:38:20.903Z,10.27
2018-09-01T06:40:49.523Z,10.60
2018-09-01T06:43:18.129Z,10.37
2018-09-01T06:45:48.496Z,11.87
2018-09-01T06:48:17.360Z,11.43
2018-09-01T06:50:46.697Z,11.70
2018-09-01T06:53:16.435Z,10.83
2018-09-01T06:55:45.080Z,11.50
2018-09-01T06:58:13.684Z,10.70
2018-09-01T07:00:42.605Z,11.53
2018-09-01T07:03:11.368Z,10.80
2018-09-01T07:05:40.064Z,10.90
2018-09-01T07:08:08.692Z,10.57
2018-09-01T07:10:37.293Z,10.27
2018-09-01T07:13:07.933Z,11.63
2018-09-01T07:15:37.201Z,10.80
2018-09-01T07:18:06.458Z,9.90
2018-09-01T07:20:35.048Z,9.50
2018-09-01T07:23:03.809Z,10.33
2018-09-01T07:25:32.435Z,10.47
2018-09-01T07:28:01.020Z,10.27
2018-09-01T07:30:29.943Z,9.60
2018-09-01T07:32:58.618Z,10.53
2018-09-01T07:35:27.948Z,10.00
2018-09-01T07:37:56.556Z,8.90
2018-09-01T07:40:25.140Z,9.20
2018-09-01T07:42:53.833Z,8.53
2018-09-01T07:45:22.448Z,9.17
2018-09-01T07:47:51.064Z,8.00
2018-09-01T07:50:19.905Z,8.37
2018-09-01T07:52:48.597Z,8.37
2018-09-01T07:55:17.989Z,8.05
2018-09-01T07:57:47.667Z,7.37
2018-09-01T08:00:16.922Z,7.15
2018-09-01T08:02:46.177Z,6.67
2018-09-01T08:05:15.384Z,6.87
2018-09-01T08:07:44.616Z,6.47
2018-09-01T08:10:13.783Z,6.35
2018-09-01T08:12:43.578Z,7.28
2018-09-01T08:15:12.805Z,6.80
2018-09-01T08:17:41.961Z,7.72
2018-09-01T08:20:11.254Z,6.83
2018-09-01T08:22:40.405Z,6.58
2018-09-01T08:25:10.078Z,7.80
2018-09-01T08:27:39.328Z,7.05
2018-09-01T08:30:08.583Z,7.08
2018-09-01T08:32:37.967Z,6.95
2018-09-01T08:35:07.295Z,7.50
2018-09-01T08:37:36.563Z,7.20
2018-09-01T08:40:06.324Z,7.62
2018-09-01T08:42:35.825Z,7.53
2018-09-01T08:45:04.541Z,7.47
2018-09-01T08:47:33.721Z,7.75
2018-09-01T08:50:03.961Z,7.75
2018-09-01T08:52:33.193Z,7.75
2018-09-01T08:55:01.857Z,7.53
2018-09-01T08:57:30.472Z,8.30
2018-09-01T08:59:59.138Z,8.50
2018-09-01T09:02:27.902Z,7.90
2018-09-01T09:04:57.064Z,8.40
2018-09-01T09:07:25.819Z,7.97
2018-09-01T09:09:54.496Z,7.97
2018-09-01T09:12:23.213Z,8.00
2018-09-01T09:14:52.379Z,8.43
2018-09-01T09:17:21.280Z,8.20
2018-09-01T09:19:49.922Z,7.93
2018-09-01T09:22:18.568Z,8.10
2018-09-01T09:27:22.580Z,8.03
2018-09-01T09:29:51.256Z,7.77
2018-09-01T09:32:20.420Z,7.60
2018-09-01T09:34:49.594Z,7.22
2018-09-01T09:37:18.860Z,7.55
2018-09-01T09:39:48.097Z,7.20
2018-09-01T09:42:17.407Z,7.83
2018-09-01T09:44:46.631Z,7.40
2018-09-01T09:47:15.919Z,7.62
2018-09-01T09:49:45.228Z,8.45
2018-09-01T09:52:14.449Z,7.70
2018-09-01T09:54:43.657Z,8.05
2018-09-01T09:57:12.832Z,8.50
2018-09-01T09:59:41.484Z,7.97
2018-09-01T10:02:10.085Z,8.00
2018-09-01T10:04:38.724Z,8.43
2018-09-01T10:07:07.597Z,8.07
2018-09-01T10:09:36.620Z,8.53
2018-09-01T10:12:05.244Z,8.43
2018-09-01T10:14:33.927Z,7.60
2018-09-01T10:17:02.643Z,7.70
2018-09-01T10:19:31.357Z,7.30
2018-09-01T10:22:00.100Z,7.43
2018-09-01T10:24:28.843Z,7.97
2018-09-01T10:26:57.674Z,7.27
2018-09-01T10:29:26.585Z,7.40
2018-09-01T10:31:55.835Z,8.13
2018-09-01T10:34:24.469Z,7.60
2018-09-01T10:36:53.160Z,7.43
2018-09-01T10:39:22.320Z,7.28
2018-09-01T10:41:51.573Z,7.45
2018-09-01T10:44:20.797Z,7.58
2018-09-01T10:46:49.515Z,7.53
2018-09-01T10:49:19.062Z,7.30
2018-09-01T10:51:48.311Z,7.45
2018-09-01T10:54:17.507Z,7.03
2018-09-01T10:56:46.739Z,6.92
2018-09-01T10:59:16.703Z,6.53
2018-09-01T11:01:46.235Z,7.12
2018-09-01T11:04:15.597Z,6.95
2018-09-01T11:06:44.770Z,6.70
2018-09-01T11:09:14.034Z,6.72
2018-09-01T11:11:43.230Z,7.10
2018-09-01T11:14:12.421Z,7.22
2018-09-01T11:16:41.654Z,7.28
2018-09-01T11:19:10.924Z,7.12
2018-09-01T11:21:40.136Z,6.87
2018-09-01T11:24:09.804Z,6.45
2018-09-01T11:26:39.269Z,6.83
2018-09-01T11:29:08.794Z,6.30
2018-09-01T11:31:37.976Z,6.87
2018-09-01T11:34:06.590Z,6.40
2018-09-01T11:36:35.708Z,7.37
2018-09-01T11:39:05.942Z,7.35
2018-09-01T11:41:35.158Z,7.80
2018-09-01T11:44:03.862Z,8.10
2018-09-01T11:46:32.866Z,8.60
2018-09-01T11:49:01.537Z,10.90
2018-09-01T11:51:30.904Z,9.60
2018-09-01T11:53:59.589Z,8.30
2018-09-01T11:56:28.226Z,7.70
2018-09-01T11:58:57.554Z,7.33
2018-09-01T12:01:26.315Z,9.07
2018-09-01T12:03:55.565Z,8.55
2018-09-01T12:06:24.156Z,8.03
2018-09-01T12:08:53.425Z,8.50
2018-09-01T12:11:22.312Z,7.97
2018-09-01T12:13:50.975Z,7.47
2018-09-01T12:16:20.156Z,9.33
2018-09-01T12:18:49.389Z,10.88
2018-09-01T12:21:18.653Z,8.35
2018-09-01T12:23:47.817Z,7.50
2018-09-01T12:26:16.479Z,9.07
2018-09-01T12:28:45.852Z,9.25
2018-09-01T12:31:15.084Z,7.10
2018-09-01T12:33:44.267Z,7.72
2018-09-01T12:36:13.460Z,7.67
2018-09-01T12:38:43.233Z,7.40
2018-09-01T12:41:13.272Z,6.30
2018-09-01T12:43:43.228Z,7.15
2018-09-01T12:46:12.496Z,7.10
2018-09-01T12:48:41.885Z,7.17
2018-09-01T12:51:11.124Z,5.97
2018-09-01T12:53:40.391Z,7.12
2018-09-01T12:56:10.780Z,6.25
2018-09-01T12:58:39.946Z,6.05
2018-09-01T13:01:09.194Z,6.35
2018-09-01T13:03:39.198Z,5.67
2018-09-01T13:06:09.347Z,5.80
2018-09-01T13:08:38.634Z,6.05
2018-09-01T13:11:08.192Z,5.85
2018-09-01T13:13:37.396Z,6.15
2018-09-01T13:16:06.700Z,6.53
2018-09-01T13:18:36.120Z,6.30
2018-09-01T13:21:05.681Z,6.10
2018-09-01T13:23:34.866Z,6.10
2018-09-01T13:26:04.077Z,5.80
2018-09-01T13:28:33.269Z,5.72
2018-09-01T13:31:02.508Z,6.00
2018-09-01T13:33:31.684Z,6.30
2018-09-01T13:36:00.933Z,6.65
2018-09-01T13:38:30.374Z,6.30
2018-09-01T13:40:59.879Z,6.65
2018-09-01T13:43:29.049Z,6.40
2018-09-01T13:45:58.380Z,6.10
2018-09-01T13:48:28.412Z,6.15
2018-09-01T13:50:57.669Z,7.40
2018-09-01T13:53:26.975Z,7.50
2018-09-01T13:55:56.265Z,7.25
2018-09-01T13:58:25.552Z,7.45
2018-09-01T14:00:54.984Z,7.12
2018-09-01T14:03:24.334Z,7.60
2018-09-01T14:05:55.258Z,7.10
2018-09-01T14:08:24.536Z,8.28
2018-09-01T14:10:53.728Z,9.85
2018-09-01T14:13:22.969Z,9.43
2018-09-01T14:15:52.237Z,8.73
2018-09-01T14:18:21.461Z,7.30
2018-09-01T14:20:50.697Z,7.40
2018-09-01T14:23:19.955Z,7.42
2018-09-01T14:25:49.256Z,7.78
2018-09-01T14:28:18.492Z,7.37
2018-09-01T14:30:47.813Z,7.45
2018-09-01T14:33:17.116Z,7.40
2018-09-01T14:35:46.297Z,7.40
2018-09-01T14:38:15.641Z,7.60
2018-09-01T14:40:44.896Z,7.28
2018-09-01T14:43:14.321Z,7.17
2018-09-01T14:45:43.539Z,7.55
2018-09-01T14:48:12.820Z,6.78
2018-09-01T14:50:42.919Z,7.45
2018-09-01T14:53:12.253Z,7.15
2018-09-01T14:55:41.790Z,7.00
2018-09-01T14:58:10.969Z,6.67
2018-09-01T15:00:40.460Z,7.45
2018-09-01T15:03:09.649Z,7.47
2018-09-01T15:05:39.113Z,7.42
2018-09-01T15:08:08.616Z,7.20
2018-09-01T15:10:37.895Z,7.95
2018-09-01T15:13:07.141Z,7.35
2018-09-01T15:15:35.779Z,7.37
2018-09-01T15:18:04.939Z,8.07
2018-09-01T15:20:34.260Z,7.85
2018-09-01T15:23:03.437Z,7.58
2018-09-01T15:25:32.680Z,7.45
2018-09-01T15:28:01.628Z,6.95
2018-09-01T15:30:30.972Z,7.47
2018-09-01T15:33:00.194Z,7.72
2018-09-01T15:35:29.068Z,7.27
2018-09-01T15:37:58.827Z,7.58
2018-09-01T15:40:28.124Z,7.13
2018-09-01T15:42:56.819Z,7.27
2018-09-01T15:45:25.504Z,7.23
2018-09-01T15:47:54.732Z,6.90
2018-09-01T15:50:23.379Z,6.73
2018-09-01T15:52:52.009Z,6.80
2018-09-01T15:55:20.628Z,6.63
2018-09-01T15:57:49.196Z,7.77
2018-09-01T16:00:17.820Z,7.20
2018-09-01T16:02:46.733Z,7.13
2018-09-01T16:05:16.312Z,7.62
2018-09-01T16:07:45.067Z,7.10
2018-09-01T16:10:13.688Z,6.80
2018-09-01T16:12:42.480Z,7.70
2018-09-01T16:15:11.718Z,7.03
2018-09-01T16:17:40.440Z,7.93
2018-09-01T16:20:09.036Z,7.50
2018-09-01T16:22:37.637Z,8.43
2018-09-01T16:25:06.598Z,8.63
2018-09-01T16:27:35.486Z,10.20
2018-09-01T16:30:04.206Z,12.43
2018-09-01T16:32:32.858Z,12.83
2018-09-01T16:35:01.695Z,13.57
2018-09-01T16:37:30.334Z,9.63
2018-09-01T16:39:59.057Z,0.60
2018-09-01T16:42:27.771Z,1.93
2018-09-01T16:44:56.370Z,1.57
2018-09-01T16:47:25.671Z,0.77
2018-09-01T16:49:54.348Z,0.40
2018-09-01T16:52:22.997Z,2.10
2018-09-01T16:54:51.729Z,0.83
2018-09-01T16:57:20.383Z,0.63
2018-09-01T16:59:49.162Z,1.20
2018-09-01T17:02:17.754Z,0.87
2018-09-01T17:04:46.341Z,1.47
2018-09-01T17:07:15.077Z,1.23
2018-09-01T17:09:43.963Z,0.83
2018-09-01T17:12:12.541Z,0.60
2018-09-01T17:14:41.281Z,0.80
2018-09-01T17:17:09.909Z,0.60
2018-09-01T17:19:38.672Z,1.80
2018-09-01T17:22:07.664Z,1.30
2018-09-01T17:24:36.300Z,1.10
2018-09-01T17:27:05.037Z,0.53
2018-09-01T17:29:33.826Z,1.53
2018-09-01T17:32:03.458Z,0.60
2018-09-01T17:34:32.069Z,0.63
2018-09-01T17:37:00.728Z,1.33
2018-09-01T17:39:29.316Z,1.30
2018-09-01T17:41:57.884Z,1.07
2018-09-01T17:44:26.505Z,0.53
2018-09-01T17:46:55.247Z,2.17
2018-09-01T17:49:23.827Z,1.40
2018-09-01T17:51:52.410Z,0.67
2018-09-01T17:54:21.137Z,1.30
2018-09-01T17:56:49.805Z,1.27
2018-09-01T17:59:18.742Z,0.23
2018-09-01T18:01:47.395Z,1.53
2018-09-01T18:04:15.972Z,1.67
2018-09-01T18:06:44.610Z,2.93
2018-09-01T18:09:13.236Z,0.80
2018-09-01T18:11:41.815Z,1.00
2018-09-01T18:14:10.557Z,1.23
2018-09-01T18:16:39.216Z,0.77
2018-09-01T18:19:08.353Z,1.60
2018-09-01T18:21:37.044Z,1.17
2018-09-01T18:24:05.728Z,0.83
2018-09-01T18:26:34.377Z,1.20
2018-09-01T18:29:03.068Z,1.20
2018-09-01T18:31:32.032Z,1.40
2018-09-01T18:34:00.636Z,1.50
2018-09-01T18:36:29.377Z,0.50
2018-09-01T18:38:58.040Z,1.13
2018-09-01T18:41:26.988Z,1.40
2018-09-01T18:43:55.624Z,1.70
2018-09-01T18:46:24.299Z,2.23
2018-09-01T18:48:53.055Z,1.23
2018-09-01T18:51:21.645Z,1.30
2018-09-01T18:53:50.268Z,1.53
2018-09-01T18:56:18.888Z,0.67
2018-09-01T18:58:47.524Z,0.97
2018-09-01T19:01:16.148Z,1.20
2018-09-01T19:03:44.733Z,1.10
2018-09-01T19:06:13.526Z,0.77
2018-09-01T19:08:42.292Z,0.83
2018-09-01T19:11:10.947Z,1.23
2018-09-01T19:13:39.947Z,1.00
2018-09-01T19:16:08.820Z,1.63
2018-09-01T19:18:37.825Z,0.77
2018-09-01T19:21:07.206Z,20.17
2018-09-01T19:23:37.037Z,19.50
2018-09-01T19:26:05.960Z,19.40
2018-09-01T19:28:34.691Z,18.70
2018-09-01T19:31:03.449Z,18.57
2018-09-01T19:33:32.107Z,17.70
2018-09-01T19:36:00.768Z,18.83
2018-09-01T19:38:29.492Z,18.50
2018-09-01T19:40:58.227Z,17.63
2018-09-01T19:43:26.909Z,18.73
2018-09-01T19:45:55.574Z,18.57
2018-09-01T19:48:24.220Z,18.63
2018-09-01T19:50:52.974Z,18.13
2018-09-01T19:53:21.661Z,19.10
2018-09-01T19:55:50.281Z,17.00
2018-09-01T19:58:18.942Z,18.20
2018-09-01T20:00:47.657Z,18.03
2018-09-01T20:03:16.302Z,17.37
2018-09-01T20:05:44.894Z,20.20
2018-09-01T20:08:13.553Z,17.13
2018-09-01T20:10:42.213Z,18.20
2018-09-01T20:13:10.885Z,18.67
2018-09-01T20:15:39.480Z,20.50
2018-09-01T20:18:08.088Z,18.97
2018-09-01T20:20:36.735Z,19.83
2018-09-01T20:23:05.756Z,22.43
2018-09-01T20:25:34.467Z,21.90
2018-09-01T20:28:03.069Z,22.57
2018-09-01T20:30:31.803Z,22.43
2018-09-01T20:33:00.512Z,21.57
2018-09-01T20:35:34.456Z,23.27
2018-09-01T20:38:03.206Z,23.57
2018-09-01T20:40:32.012Z,22.43
2018-09-01T20:43:00.637Z,22.27
2018-09-01T20:45:29.315Z,22.47
2018-09-01T20:47:58.123Z,21.30
2018-09-01T20:50:26.959Z,22.13
2018-09-01T20:52:55.647Z,21.60
2018-09-01T20:55:24.807Z,21.67
2018-09-01T20:57:53.527Z,20.13
2018-09-01T21:00:22.197Z,19.67
2018-09-01T21:02:50.869Z,19.93
2018-09-01T21:05:19.508Z,17.87
2018-09-01T21:07:48.880Z,16.53
2018-09-01T21:10:17.555Z,17.00
2018-09-01T21:12:46.400Z,17.27
2018-09-01T21:15:15.240Z,16.53
2018-09-01T21:17:43.891Z,17.40
2018-09-01T21:20:12.572Z,17.77
2018-09-01T21:22:41.153Z,16.90
2018-09-01T21:25:10.147Z,15.60
2018-09-01T21:27:38.970Z,15.00
2018-09-01T21:30:08.108Z,14.53
2018-09-01T21:32:36.697Z,14.90
2018-09-01T21:35:06.822Z,12.03
2018-09-01T21:37:35.484Z,13.37
2018-09-01T21:40:04.882Z,13.40
2018-09-01T21:42:33.571Z,13.03
2018-09-01T21:45:02.224Z,12.67
2018-09-01T21:47:30.892Z,13.03
2018-09-01T21:49:59.604Z,12.70
2018-09-01T21:52:28.315Z,14.40
2018-09-01T21:54:56.898Z,12.20
2018-09-01T21:57:25.618Z,13.67
2018-09-01T21:59:54.436Z,13.40
2018-09-01T22:02:23.040Z,13.87
2018-09-01T22:04:57.024Z,13.43
2018-09-01T22:07:25.741Z,14.03
2018-09-01T22:09:55.217Z,13.33
2018-09-01T22:12:25.096Z,13.30
2018-09-01T22:14:54.616Z,14.00
2018-09-01T22:17:23.701Z,13.03
2018-09-01T22:19:52.327Z,14.47
2018-09-01T22:22:21.947Z,14.43
2018-09-01T22:24:50.634Z,14.70
2018-09-01T22:27:19.263Z,14.60
2018-09-01T22:29:47.864Z,14.43
2018-09-01T22:32:16.489Z,14.10
2018-09-01T22:34:45.221Z,13.70
2018-09-01T22:37:14.248Z,15.07
2018-09-01T22:39:42.889Z,15.60
2018-09-01T22:42:11.480Z,14.80
2018-09-01T22:44:40.161Z,14.90
2018-09-01T22:47:12.576Z,15.60
2018-09-01T22:49:41.269Z,14.73
2018-09-01T22:52:09.913Z,15.17
2018-09-01T22:54:38.603Z,15.87
2018-09-01T22:57:07.361Z,16.43
2018-09-01T22:59:36.040Z,15.80
2018-09-01T23:02:05.668Z,17.17
2018-09-01T23:04:34.336Z,16.10
2018-09-01T23:07:02.992Z,16.63
2018-09-01T23:09:31.580Z,15.83
2018-09-01T23:12:00.506Z,14.90
2018-09-01T23:14:29.132Z,15.07
2018-09-01T23:16:57.983Z,13.87
2018-09-01T23:19:26.713Z,15.37
2018-09-01T23:21:55.305Z,15.30
2018-09-01T23:24:23.977Z,15.03
2018-09-01T23:26:52.587Z,15.17
2018-09-01T23:29:21.193Z,15.47
2018-09-01T23:31:49.793Z,15.00
2018-09-01T23:34:18.833Z,15.03
2018-09-01T23:36:47.513Z,14.73
2018-09-01T23:39:16.114Z,14.13
2018-09-01T23:41:45.182Z,14.47
2018-09-01T23:44:13.799Z,14.37
2018-09-01T23:46:42.391Z,14.60
2018-09-01T23:49:11.009Z,13.30
2018-09-01T23:51:39.634Z,14.33
2018-09-01T23:54:08.234Z,14.00
2018-09-01T23:56:36.824Z,13.90
2018-09-01T23:59:06.123Z,13.13
